sensor_id;sensor_type;location;lat;lon;timestamp;P1;durP1;ratioP1;P2;durP2;ratioP2
25936;SDS011;13733;51.178;4.450;2024-03-08T00:02:16;52.30;;;29.10;;
25936;SDS011;13733;51.178;4.450;2024-03-08T00:04:42;59.40;;;30.65;;
25936;SDS011;13733;51.178;4.450;2024-03-08T00:07:10;54.33;;;30.30;;
25936;SDS011;13733;51.178;4.450;2024-03-08T00:09:35;51.75;;;28.35;;
25936;SDS011;13733;51.178;4.450;2024-03-08T00:12:01;50.00;;;28.67;;
25936;SDS011;13733;51.178;4.450;2024-03-08T00:14:27;51.95;;;29.55;;
25936;SDS011;13733;51.178;4.450;2024-03-08T00:16:53;52.17;;;27.88;;
25936;SDS011;13733;51.178;4.450;2024-03-08T00:19:19;56.83;;;29.50;;
25936;SDS011;13733;51.178;4.450;2024-03-08T00:21:46;53.20;;;28.67;;
25936;SDS011;13733;51.178;4.450;2024-03-08T00:24:12;52.97;;;29.60;;
25936;SDS011;13733;51.178;4.450;2024-03-08T00:26:38;51.17;;;27.20;;
25936;SDS011;13733;51.178;4.450;2024-03-08T00:29:04;53.47;;;29.27;;
25936;SDS011;13733;51.178;4.450;2024-03-08T00:31:30;53.30;;;28.88;;
25936;SDS011;13733;51.178;4.450;2024-03-08T00:33:58;53.28;;;28.65;;
25936;SDS011;13733;51.178;4.450;2024-03-08T00:36:24;52.88;;;27.80;;
25936;SDS011;13733;51.178;4.450;2024-03-08T00:38:50;58.45;;;28.85;;
25936;SDS011;13733;51.178;4.450;2024-03-08T00:41:16;56.58;;;31.08;;
25936;SDS011;13733;51.178;4.450;2024-03-08T00:43:42;53.90;;;28.67;;
25936;SDS011;13733;51.178;4.450;2024-03-08T00:46:08;51.15;;;28.80;;
25936;SDS011;13733;51.178;4.450;2024-03-08T00:48:35;52.65;;;28.85;;
25936;SDS011;13733;51.178;4.450;2024-03-08T00:51:01;51.97;;;27.65;;
25936;SDS011;13733;51.178;4.450;2024-03-08T00:53:27;48.00;;;28.35;;
25936;SDS011;13733;51.178;4.450;2024-03-08T00:55:53;52.03;;;28.27;;
25936;SDS011;13733;51.178;4.450;2024-03-08T00:58:20;48.05;;;27.38;;
25936;SDS011;13733;51.178;4.450;2024-03-08T01:00:46;47.17;;;27.10;;
25936;SDS011;13733;51.178;4.450;2024-03-08T01:03:12;52.05;;;27.90;;
25936;SDS011;13733;51.178;4.450;2024-03-08T01:05:38;52.67;;;29.05;;
25936;SDS011;13733;51.178;4.450;2024-03-08T01:08:03;52.53;;;27.90;;
25936;SDS011;13733;51.178;4.450;2024-03-08T01:10:30;45.90;;;26.95;;
25936;SDS011;13733;51.178;4.450;2024-03-08T01:12:56;48.63;;;26.90;;
25936;SDS011;13733;51.178;4.450;2024-03-08T01:15:22;51.35;;;28.35;;
25936;SDS011;13733;51.178;4.450;2024-03-08T01:17:48;47.13;;;26.55;;
25936;SDS011;13733;51.178;4.450;2024-03-08T01:20:15;48.97;;;28.27;;
25936;SDS011;13733;51.178;4.450;2024-03-08T01:22:41;46.92;;;27.75;;
25936;SDS011;13733;51.178;4.450;2024-03-08T01:25:07;45.28;;;27.08;;
25936;SDS011;13733;51.178;4.450;2024-03-08T01:27:33;47.13;;;27.35;;
25936;SDS011;13733;51.178;4.450;2024-03-08T01:30:00;43.67;;;26.80;;
25936;SDS011;13733;51.178;4.450;2024-03-08T01:32:26;47.80;;;26.80;;
25936;SDS011;13733;51.178;4.450;2024-03-08T01:34:52;50.40;;;27.17;;
25936;SDS011;13733;51.178;4.450;2024-03-08T01:37:18;44.70;;;26.75;;
25936;SDS011;13733;51.178;4.450;2024-03-08T01:39:45;45.10;;;26.85;;
25936;SDS011;13733;51.178;4.450;2024-03-08T01:42:11;47.40;;;26.40;;
25936;SDS011;13733;51.178;4.450;2024-03-08T01:44:39;44.28;;;26.58;;
25936;SDS011;13733;51.178;4.450;2024-03-08T01:47:05;48.10;;;26.80;;
25936;SDS011;13733;51.178;4.450;2024-03-08T01:49:32;43.03;;;26.25;;
25936;SDS011;13733;51.178;4.450;2024-03-08T01:51:58;44.88;;;26.17;;
25936;SDS011;13733;51.178;4.450;2024-03-08T01:54:24;45.60;;;26.33;;
25936;SDS011;13733;51.178;4.450;2024-03-08T01:56:52;42.40;;;25.88;;
25936;SDS011;13733;51.178;4.450;2024-03-08T01:59:18;44.67;;;25.52;;
25936;SDS011;13733;51.178;4.450;2024-03-08T02:01:44;42.78;;;26.27;;
25936;SDS011;13733;51.178;4.450;2024-03-08T02:04:11;38.72;;;25.05;;
25936;SDS011;13733;51.178;4.450;2024-03-08T02:06:37;40.17;;;25.23;;
25936;SDS011;13733;51.178;4.450;2024-03-08T02:09:03;42.60;;;25.52;;
25936;SDS011;13733;51.178;4.450;2024-03-08T02:11:35;42.50;;;25.73;;
25936;SDS011;13733;51.178;4.450;2024-03-08T02:14:01;42.72;;;25.33;;
25936;SDS011;13733;51.178;4.450;2024-03-08T02:16:27;42.08;;;24.95;;
25936;SDS011;13733;51.178;4.450;2024-03-08T02:18:53;39.53;;;24.95;;
25936;SDS011;13733;51.178;4.450;2024-03-08T02:21:20;41.35;;;25.73;;
25936;SDS011;13733;51.178;4.450;2024-03-08T02:23:46;41.58;;;24.90;;
25936;SDS011;13733;51.178;4.450;2024-03-08T02:26:12;41.58;;;25.48;;
25936;SDS011;13733;51.178;4.450;2024-03-08T02:28:38;40.28;;;26.02;;
25936;SDS011;13733;51.178;4.450;2024-03-08T02:31:04;36.47;;;24.25;;
25936;SDS011;13733;51.178;4.450;2024-03-08T02:33:33;38.92;;;24.38;;
25936;SDS011;13733;51.178;4.450;2024-03-08T02:35:59;42.17;;;26.05;;
25936;SDS011;13733;51.178;4.450;2024-03-08T02:38:25;37.50;;;25.30;;
25936;SDS011;13733;51.178;4.450;2024-03-08T02:40:52;41.83;;;25.70;;
25936;SDS011;13733;51.178;4.450;2024-03-08T02:43:19;42.22;;;25.45;;
25936;SDS011;13733;51.178;4.450;2024-03-08T02:45:47;38.97;;;23.92;;
25936;SDS011;13733;51.178;4.450;2024-03-08T02:48:14;37.08;;;25.08;;
25936;SDS011;13733;51.178;4.450;2024-03-08T02:50:41;39.05;;;23.55;;
25936;SDS011;13733;51.178;4.450;2024-03-08T02:53:13;38.05;;;24.45;;
25936;SDS011;13733;51.178;4.450;2024-03-08T02:55:40;37.25;;;24.30;;
25936;SDS011;13733;51.178;4.450;2024-03-08T02:58:07;38.78;;;25.10;;
25936;SDS011;13733;51.178;4.450;2024-03-08T03:00:36;39.15;;;24.33;;
25936;SDS011;13733;51.178;4.450;2024-03-08T03:03:03;39.45;;;25.02;;
25936;SDS011;13733;51.178;4.450;2024-03-08T03:05:30;40.85;;;25.20;;
25936;SDS011;13733;51.178;4.450;2024-03-08T03:07:56;36.95;;;24.52;;
25936;SDS011;13733;51.178;4.450;2024-03-08T03:10:23;39.22;;;24.70;;
25936;SDS011;13733;51.178;4.450;2024-03-08T03:12:49;35.30;;;24.52;;
25936;SDS011;13733;51.178;4.450;2024-03-08T03:15:15;39.20;;;25.33;;
25936;SDS011;13733;51.178;4.450;2024-03-08T03:17:45;34.20;;;23.33;;
25936;SDS011;13733;51.178;4.450;2024-03-08T03:20:13;36.95;;;24.65;;
25936;SDS011;13733;51.178;4.450;2024-03-08T03:22:40;35.10;;;24.27;;
25936;SDS011;13733;51.178;4.450;2024-03-08T03:25:06;33.97;;;24.02;;
25936;SDS011;13733;51.178;4.450;2024-03-08T03:27:35;36.95;;;25.00;;
25936;SDS011;13733;51.178;4.450;2024-03-08T03:30:02;36.28;;;23.83;;
25936;SDS011;13733;51.178;4.450;2024-03-08T03:32:47;35.92;;;23.42;;
25936;SDS011;13733;51.178;4.450;2024-03-08T03:35:14;34.92;;;24.05;;
25936;SDS011;13733;51.178;4.450;2024-03-08T03:37:42;42.10;;;25.27;;
25936;SDS011;13733;51.178;4.450;2024-03-08T03:40:16;39.05;;;24.27;;
25936;SDS011;13733;51.178;4.450;2024-03-08T03:42:44;34.97;;;24.15;;
25936;SDS011;13733;51.178;4.450;2024-03-08T03:45:10;35.17;;;23.42;;
25936;SDS011;13733;51.178;4.450;2024-03-08T03:47:36;34.05;;;24.88;;
25936;SDS011;13733;51.178;4.450;2024-03-08T03:50:04;34.10;;;24.67;;
25936;SDS011;13733;51.178;4.450;2024-03-08T03:52:31;33.53;;;23.63;;
25936;SDS011;13733;51.178;4.450;2024-03-08T03:54:57;36.63;;;24.73;;
25936;SDS011;13733;51.178;4.450;2024-03-08T03:57:23;36.13;;;24.30;;
25936;SDS011;13733;51.178;4.450;2024-03-08T03:59:48;36.38;;;24.15;;
25936;SDS011;13733;51.178;4.450;2024-03-08T04:02:16;35.92;;;23.30;;
25936;SDS011;13733;51.178;4.450;2024-03-08T04:04:42;37.88;;;23.38;;
25936;SDS011;13733;51.178;4.450;2024-03-08T04:07:10;33.63;;;24.00;;
25936;SDS011;13733;51.178;4.450;2024-03-08T04:09:36;37.15;;;24.85;;
25936;SDS011;13733;51.178;4.450;2024-03-08T04:12:02;38.47;;;24.55;;
25936;SDS011;13733;51.178;4.450;2024-03-08T04:14:29;41.60;;;24.85;;
25936;SDS011;13733;51.178;4.450;2024-03-08T04:16:55;35.97;;;23.55;;
25936;SDS011;13733;51.178;4.450;2024-03-08T04:19:21;37.55;;;25.42;;
25936;SDS011;13733;51.178;4.450;2024-03-08T04:21:47;35.33;;;24.00;;
25936;SDS011;13733;51.178;4.450;2024-03-08T04:24:13;38.08;;;24.52;;
25936;SDS011;13733;51.178;4.450;2024-03-08T04:26:39;36.97;;;24.33;;
25936;SDS011;13733;51.178;4.450;2024-03-08T04:29:06;37.67;;;23.20;;
25936;SDS011;13733;51.178;4.450;2024-03-08T04:31:31;35.97;;;25.08;;
25936;SDS011;13733;51.178;4.450;2024-03-08T04:33:57;32.65;;;24.23;;
25936;SDS011;13733;51.178;4.450;2024-03-08T04:36:23;36.08;;;24.30;;
25936;SDS011;13733;51.178;4.450;2024-03-08T04:38:50;36.58;;;23.58;;
25936;SDS011;13733;51.178;4.450;2024-03-08T04:41:16;39.25;;;23.77;;
25936;SDS011;13733;51.178;4.450;2024-03-08T04:43:43;36.25;;;24.90;;
25936;SDS011;13733;51.178;4.450;2024-03-08T04:46:09;33.00;;;23.88;;
25936;SDS011;13733;51.178;4.450;2024-03-08T04:48:35;36.60;;;24.17;;
25936;SDS011;13733;51.178;4.450;2024-03-08T04:51:02;35.83;;;24.35;;
25936;SDS011;13733;51.178;4.450;2024-03-08T04:53:29;37.33;;;25.33;;
25936;SDS011;13733;51.178;4.450;2024-03-08T04:55:57;36.05;;;24.05;;
25936;SDS011;13733;51.178;4.450;2024-03-08T04:58:23;32.97;;;22.67;;
25936;SDS011;13733;51.178;4.450;2024-03-08T05:00:49;37.05;;;25.15;;
25936;SDS011;13733;51.178;4.450;2024-03-08T05:03:15;34.10;;;23.08;;
25936;SDS011;13733;51.178;4.450;2024-03-08T05:05:41;33.80;;;24.92;;
25936;SDS011;13733;51.178;4.450;2024-03-08T05:08:07;35.47;;;25.52;;
25936;SDS011;13733;51.178;4.450;2024-03-08T05:10:33;37.60;;;25.05;;
25936;SDS011;13733;51.178;4.450;2024-03-08T05:12:59;32.80;;;24.70;;
25936;SDS011;13733;51.178;4.450;2024-03-08T05:15:25;35.13;;;24.23;;
25936;SDS011;13733;51.178;4.450;2024-03-08T05:17:50;35.85;;;24.60;;
25936;SDS011;13733;51.178;4.450;2024-03-08T05:20:16;37.03;;;25.67;;
25936;SDS011;13733;51.178;4.450;2024-03-08T05:22:42;37.63;;;24.02;;
25936;SDS011;13733;51.178;4.450;2024-03-08T05:25:08;35.97;;;25.05;;
25936;SDS011;13733;51.178;4.450;2024-03-08T05:27:35;36.88;;;25.70;;
25936;SDS011;13733;51.178;4.450;2024-03-08T05:30:02;37.45;;;24.30;;
25936;SDS011;13733;51.178;4.450;2024-03-08T05:32:29;38.75;;;25.98;;
25936;SDS011;13733;51.178;4.450;2024-03-08T05:34:55;37.70;;;25.33;;
25936;SDS011;13733;51.178;4.450;2024-03-08T05:37:21;37.30;;;25.42;;
25936;SDS011;13733;51.178;4.450;2024-03-08T05:39:47;37.28;;;25.80;;
25936;SDS011;13733;51.178;4.450;2024-03-08T05:42:13;38.72;;;25.25;;
25936;SDS011;13733;51.178;4.450;2024-03-08T05:44:39;35.72;;;25.25;;
25936;SDS011;13733;51.178;4.450;2024-03-08T05:47:05;36.85;;;24.40;;
25936;SDS011;13733;51.178;4.450;2024-03-08T05:49:32;41.22;;;25.02;;
25936;SDS011;13733;51.178;4.450;2024-03-08T05:51:59;35.08;;;24.52;;
25936;SDS011;13733;51.178;4.450;2024-03-08T05:54:25;37.30;;;26.30;;
25936;SDS011;13733;51.178;4.450;2024-03-08T05:56:52;37.20;;;25.38;;
25936;SDS011;13733;51.178;4.450;2024-03-08T05:59:19;36.45;;;25.17;;
25936;SDS011;13733;51.178;4.450;2024-03-08T06:01:45;39.05;;;26.05;;
25936;SDS011;13733;51.178;4.450;2024-03-08T06:04:12;43.53;;;27.05;;
25936;SDS011;13733;51.178;4.450;2024-03-08T06:06:38;37.67;;;26.38;;
25936;SDS011;13733;51.178;4.450;2024-03-08T06:09:04;41.83;;;27.08;;
25936;SDS011;13733;51.178;4.450;2024-03-08T06:11:36;36.45;;;25.42;;
25936;SDS011;13733;51.178;4.450;2024-03-08T06:14:03;40.95;;;26.40;;
25936;SDS011;13733;51.178;4.450;2024-03-08T06:16:29;35.72;;;25.77;;
25936;SDS011;13733;51.178;4.450;2024-03-08T06:18:57;41.15;;;26.02;;
25936;SDS011;13733;51.178;4.450;2024-03-08T06:21:24;39.90;;;27.35;;
25936;SDS011;13733;51.178;4.450;2024-03-08T06:23:53;38.45;;;26.75;;
25936;SDS011;13733;51.178;4.450;2024-03-08T06:26:28;39.58;;;25.95;;
25936;SDS011;13733;51.178;4.450;2024-03-08T06:28:54;40.42;;;26.65;;
25936;SDS011;13733;51.178;4.450;2024-03-08T06:31:21;37.15;;;26.67;;
25936;SDS011;13733;51.178;4.450;2024-03-08T06:33:49;34.75;;;24.35;;
25936;SDS011;13733;51.178;4.450;2024-03-08T06:36:16;35.53;;;24.92;;
25936;SDS011;13733;51.178;4.450;2024-03-08T06:38:47;40.08;;;25.30;;
25936;SDS011;13733;51.178;4.450;2024-03-08T06:41:14;36.58;;;25.15;;
25936;SDS011;13733;51.178;4.450;2024-03-08T06:43:43;42.08;;;26.45;;
25936;SDS011;13733;51.178;4.450;2024-03-08T06:46:09;45.22;;;25.08;;
25936;SDS011;13733;51.178;4.450;2024-03-08T06:48:38;37.15;;;26.25;;
25936;SDS011;13733;51.178;4.450;2024-03-08T06:51:04;40.83;;;25.40;;
25936;SDS011;13733;51.178;4.450;2024-03-08T06:53:30;38.92;;;25.38;;
25936;SDS011;13733;51.178;4.450;2024-03-08T06:55:57;42.17;;;25.67;;
25936;SDS011;13733;51.178;4.450;2024-03-08T06:58:23;37.60;;;25.08;;
25936;SDS011;13733;51.178;4.450;2024-03-08T07:00:50;44.03;;;25.30;;
25936;SDS011;13733;51.178;4.450;2024-03-08T07:03:19;36.77;;;25.70;;
25936;SDS011;13733;51.178;4.450;2024-03-08T07:05:47;42.75;;;26.85;;
25936;SDS011;13733;51.178;4.450;2024-03-08T07:08:13;38.28;;;25.60;;
25936;SDS011;13733;51.178;4.450;2024-03-08T07:10:39;42.80;;;26.88;;
25936;SDS011;13733;51.178;4.450;2024-03-08T07:13:08;37.95;;;24.27;;
25936;SDS011;13733;51.178;4.450;2024-03-08T07:15:35;41.95;;;25.58;;
25936;SDS011;13733;51.178;4.450;2024-03-08T07:18:01;41.65;;;26.35;;
25936;SDS011;13733;51.178;4.450;2024-03-08T07:20:27;40.85;;;26.58;;
25936;SDS011;13733;51.178;4.450;2024-03-08T07:22:53;36.75;;;25.10;;
25936;SDS011;13733;51.178;4.450;2024-03-08T07:25:19;41.78;;;24.63;;
25936;SDS011;13733;51.178;4.450;2024-03-08T07:27:54;37.92;;;24.27;;
25936;SDS011;13733;51.178;4.450;2024-03-08T07:30:21;42.50;;;26.52;;
25936;SDS011;13733;51.178;4.450;2024-03-08T07:33:10;35.10;;;23.20;;
25936;SDS011;13733;51.178;4.450;2024-03-08T07:35:39;35.90;;;24.38;;
25936;SDS011;13733;51.178;4.450;2024-03-08T07:38:08;37.85;;;25.55;;
25936;SDS011;13733;51.178;4.450;2024-03-08T07:40:40;39.63;;;25.60;;
25936;SDS011;13733;51.178;4.450;2024-03-08T07:43:10;47.22;;;31.30;;
25936;SDS011;13733;51.178;4.450;2024-03-08T07:45:39;39.45;;;25.75;;
25936;SDS011;13733;51.178;4.450;2024-03-08T07:48:05;39.78;;;24.40;;
25936;SDS011;13733;51.178;4.450;2024-03-08T07:50:38;36.47;;;24.10;;
25936;SDS011;13733;51.178;4.450;2024-03-08T07:53:12;32.60;;;23.15;;
25936;SDS011;13733;51.178;4.450;2024-03-08T07:55:38;35.35;;;23.40;;
25936;SDS011;13733;51.178;4.450;2024-03-08T07:58:05;36.35;;;23.40;;
25936;SDS011;13733;51.178;4.450;2024-03-08T08:00:31;37.22;;;23.58;;
25936;SDS011;13733;51.178;4.450;2024-03-08T08:02:57;38.25;;;22.58;;
25936;SDS011;13733;51.178;4.450;2024-03-08T08:05:23;34.78;;;22.83;;
25936;SDS011;13733;51.178;4.450;2024-03-08T08:07:49;36.92;;;23.23;;
25936;SDS011;13733;51.178;4.450;2024-03-08T08:10:17;33.95;;;23.35;;
25936;SDS011;13733;51.178;4.450;2024-03-08T08:12:50;35.58;;;22.67;;
25936;SDS011;13733;51.178;4.450;2024-03-08T08:15:19;31.73;;;22.58;;
25936;SDS011;13733;51.178;4.450;2024-03-08T08:17:45;35.67;;;22.85;;
25936;SDS011;13733;51.178;4.450;2024-03-08T08:20:11;33.75;;;22.05;;
25936;SDS011;13733;51.178;4.450;2024-03-08T08:22:38;37.72;;;22.90;;
25936;SDS011;13733;51.178;4.450;2024-03-08T08:25:09;32.22;;;22.90;;
25936;SDS011;13733;51.178;4.450;2024-03-08T08:27:41;37.40;;;22.90;;
25936;SDS011;13733;51.178;4.450;2024-03-08T08:30:10;37.88;;;23.92;;
25936;SDS011;13733;51.178;4.450;2024-03-08T08:32:36;34.50;;;23.02;;
25936;SDS011;13733;51.178;4.450;2024-03-08T08:35:04;35.55;;;22.50;;
25936;SDS011;13733;51.178;4.450;2024-03-08T08:37:31;32.90;;;22.17;;
25936;SDS011;13733;51.178;4.450;2024-03-08T08:39:57;34.38;;;22.42;;
25936;SDS011;13733;51.178;4.450;2024-03-08T08:42:23;40.70;;;22.38;;
25936;SDS011;13733;51.178;4.450;2024-03-08T08:44:51;36.03;;;21.40;;
25936;SDS011;13733;51.178;4.450;2024-03-08T08:47:17;34.38;;;21.92;;
25936;SDS011;13733;51.178;4.450;2024-03-08T08:49:44;35.42;;;22.25;;
25936;SDS011;13733;51.178;4.450;2024-03-08T08:52:12;36.40;;;22.08;;
25936;SDS011;13733;51.178;4.450;2024-03-08T08:54:38;32.22;;;21.33;;
25936;SDS011;13733;51.178;4.450;2024-03-08T08:57:04;33.95;;;22.02;;
25936;SDS011;13733;51.178;4.450;2024-03-08T08:59:35;32.13;;;21.70;;
25936;SDS011;13733;51.178;4.450;2024-03-08T09:02:02;30.33;;;20.83;;
25936;SDS011;13733;51.178;4.450;2024-03-08T09:04:29;31.92;;;21.08;;
25936;SDS011;13733;51.178;4.450;2024-03-08T09:06:56;32.38;;;20.60;;
25936;SDS011;13733;51.178;4.450;2024-03-08T09:09:22;33.38;;;21.55;;
25936;SDS011;13733;51.178;4.450;2024-03-08T09:11:49;33.30;;;19.85;;
25936;SDS011;13733;51.178;4.450;2024-03-08T09:14:15;32.28;;;20.45;;
25936;SDS011;13733;51.178;4.450;2024-03-08T09:16:41;29.88;;;20.38;;
25936;SDS011;13733;51.178;4.450;2024-03-08T09:19:06;28.90;;;19.92;;
25936;SDS011;13733;51.178;4.450;2024-03-08T09:21:33;29.60;;;20.45;;
25936;SDS011;13733;51.178;4.450;2024-03-08T09:24:02;32.00;;;20.07;;
25936;SDS011;13733;51.178;4.450;2024-03-08T09:26:28;33.00;;;20.67;;
25936;SDS011;13733;51.178;4.450;2024-03-08T09:28:54;28.23;;;19.63;;
25936;SDS011;13733;51.178;4.450;2024-03-08T09:31:20;28.60;;;19.70;;
25936;SDS011;13733;51.178;4.450;2024-03-08T09:33:47;33.35;;;19.85;;
25936;SDS011;13733;51.178;4.450;2024-03-08T09:36:12;29.13;;;20.40;;
25936;SDS011;13733;51.178;4.450;2024-03-08T09:38:39;27.65;;;19.60;;
25936;SDS011;13733;51.178;4.450;2024-03-08T09:41:05;31.52;;;20.20;;
25936;SDS011;13733;51.178;4.450;2024-03-08T09:43:31;34.78;;;20.92;;
25936;SDS011;13733;51.178;4.450;2024-03-08T09:45:58;25.42;;;18.73;;
25936;SDS011;13733;51.178;4.450;2024-03-08T09:48:24;32.10;;;19.27;;
25936;SDS011;13733;51.178;4.450;2024-03-08T09:50:51;29.17;;;19.23;;
25936;SDS011;13733;51.178;4.450;2024-03-08T09:53:17;28.00;;;18.95;;
25936;SDS011;13733;51.178;4.450;2024-03-08T09:55:43;29.00;;;18.88;;
25936;SDS011;13733;51.178;4.450;2024-03-08T09:58:15;28.65;;;17.88;;
25936;SDS011;13733;51.178;4.450;2024-03-08T10:00:43;26.50;;;18.90;;
25936;SDS011;13733;51.178;4.450;2024-03-08T10:03:09;27.38;;;18.33;;
25936;SDS011;13733;51.178;4.450;2024-03-08T10:05:36;31.55;;;19.50;;
25936;SDS011;13733;51.178;4.450;2024-03-08T10:08:02;26.52;;;18.40;;
25936;SDS011;13733;51.178;4.450;2024-03-08T10:10:30;26.77;;;17.38;;
25936;SDS011;13733;51.178;4.450;2024-03-08T10:12:57;27.45;;;18.58;;
25936;SDS011;13733;51.178;4.450;2024-03-08T10:15:26;25.23;;;17.67;;
25936;SDS011;13733;51.178;4.450;2024-03-08T10:17:57;27.00;;;18.73;;
25936;SDS011;13733;51.178;4.450;2024-03-08T10:20:23;26.23;;;17.25;;
25936;SDS011;13733;51.178;4.450;2024-03-08T10:22:49;23.13;;;17.45;;
25936;SDS011;13733;51.178;4.450;2024-03-08T10:25:15;24.85;;;17.80;;
25936;SDS011;13733;51.178;4.450;2024-03-08T10:27:41;25.42;;;18.52;;
25936;SDS011;13733;51.178;4.450;2024-03-08T10:30:10;30.35;;;17.45;;
25936;SDS011;13733;51.178;4.450;2024-03-08T10:32:39;26.13;;;17.45;;
25936;SDS011;13733;51.178;4.450;2024-03-08T10:35:09;25.48;;;17.25;;
25936;SDS011;13733;51.178;4.450;2024-03-08T10:37:48;25.80;;;17.35;;
25936;SDS011;13733;51.178;4.450;2024-03-08T10:40:29;25.38;;;17.90;;
25936;SDS011;13733;51.178;4.450;2024-03-08T10:42:56;21.65;;;16.38;;
25936;SDS011;13733;51.178;4.450;2024-03-08T10:45:37;25.20;;;17.17;;
25936;SDS011;13733;51.178;4.450;2024-03-08T10:50:57;22.90;;;17.33;;
25936;SDS011;13733;51.178;4.450;2024-03-08T10:53:24;25.70;;;17.23;;
25936;SDS011;13733;51.178;4.450;2024-03-08T10:55:52;23.98;;;17.20;;
25936;SDS011;13733;51.178;4.450;2024-03-08T10:58:22;26.65;;;16.42;;
25936;SDS011;13733;51.178;4.450;2024-03-08T11:00:55;23.02;;;16.35;;
25936;SDS011;13733;51.178;4.450;2024-03-08T11:08:42;23.98;;;15.98;;
25936;SDS011;13733;51.178;4.450;2024-03-08T11:11:24;22.60;;;16.65;;
25936;SDS011;13733;51.178;4.450;2024-03-08T11:13:58;22.05;;;16.58;;
25936;SDS011;13733;51.178;4.450;2024-03-08T11:18:54;23.53;;;16.13;;
25936;SDS011;13733;51.178;4.450;2024-03-08T11:21:25;23.70;;;15.55;;
25936;SDS011;13733;51.178;4.450;2024-03-08T11:24:10;20.23;;;15.93;;
25936;SDS011;13733;51.178;4.450;2024-03-08T11:26:38;23.08;;;15.75;;
25936;SDS011;13733;51.178;4.450;2024-03-08T11:32:03;23.30;;;16.40;;
25936;SDS011;13733;51.178;4.450;2024-03-08T11:34:35;21.70;;;16.35;;
25936;SDS011;13733;51.178;4.450;2024-03-08T11:37:04;24.27;;;17.23;;
25936;SDS011;13733;51.178;4.450;2024-03-08T11:39:31;24.13;;;16.92;;
25936;SDS011;13733;51.178;4.450;2024-03-08T11:41:57;21.88;;;15.38;;
25936;SDS011;13733;51.178;4.450;2024-03-08T11:44:26;20.45;;;16.05;;
25936;SDS011;13733;51.178;4.450;2024-03-08T11:46:53;20.75;;;16.02;;
25936;SDS011;13733;51.178;4.450;2024-03-08T11:49:19;23.75;;;16.67;;
25936;SDS011;13733;51.178;4.450;2024-03-08T11:51:46;26.50;;;17.05;;
25936;SDS011;13733;51.178;4.450;2024-03-08T11:54:15;22.90;;;16.10;;
25936;SDS011;13733;51.178;4.450;2024-03-08T11:56:41;22.00;;;14.85;;
25936;SDS011;13733;51.178;4.450;2024-03-08T11:59:10;20.83;;;15.80;;
25936;SDS011;13733;51.178;4.450;2024-03-08T12:01:38;23.13;;;16.27;;
25936;SDS011;13733;51.178;4.450;2024-03-08T12:04:04;22.75;;;16.13;;
25936;SDS011;13733;51.178;4.450;2024-03-08T12:06:40;23.17;;;16.17;;
25936;SDS011;13733;51.178;4.450;2024-03-08T12:09:10;25.48;;;16.25;;
25936;SDS011;13733;51.178;4.450;2024-03-08T12:11:36;24.43;;;16.10;;
25936;SDS011;13733;51.178;4.450;2024-03-08T12:14:03;19.33;;;15.13;;
25936;SDS011;13733;51.178;4.450;2024-03-08T12:16:29;21.20;;;16.25;;
25936;SDS011;13733;51.178;4.450;2024-03-08T12:18:55;19.55;;;15.35;;
25936;SDS011;13733;51.178;4.450;2024-03-08T12:21:21;20.17;;;15.18;;
25936;SDS011;13733;51.178;4.450;2024-03-08T12:24:01;19.75;;;15.50;;
25936;SDS011;13733;51.178;4.450;2024-03-08T12:26:28;23.88;;;15.23;;
25936;SDS011;13733;51.178;4.450;2024-03-08T12:28:55;21.90;;;14.85;;
25936;SDS011;13733;51.178;4.450;2024-03-08T12:31:45;19.52;;;15.32;;
25936;SDS011;13733;51.178;4.450;2024-03-08T12:34:12;21.15;;;15.95;;
25936;SDS011;13733;51.178;4.450;2024-03-08T12:36:44;20.33;;;15.07;;
25936;SDS011;13733;51.178;4.450;2024-03-08T12:39:13;23.13;;;15.80;;
25936;SDS011;13733;51.178;4.450;2024-03-08T12:41:41;20.23;;;15.52;;
25936;SDS011;13733;51.178;4.450;2024-03-08T12:44:08;20.75;;;15.68;;
25936;SDS011;13733;51.178;4.450;2024-03-08T12:46:36;18.55;;;14.68;;
25936;SDS011;13733;51.178;4.450;2024-03-08T12:49:08;23.83;;;15.38;;
25936;SDS011;13733;51.178;4.450;2024-03-08T12:51:38;24.73;;;15.50;;
25936;SDS011;13733;51.178;4.450;2024-03-08T12:54:04;19.55;;;15.52;;
25936;SDS011;13733;51.178;4.450;2024-03-08T12:56:33;23.88;;;15.20;;
25936;SDS011;13733;51.178;4.450;2024-03-08T12:59:00;20.02;;;15.85;;
25936;SDS011;13733;51.178;4.450;2024-03-08T13:01:26;21.63;;;15.63;;
25936;SDS011;13733;51.178;4.450;2024-03-08T13:03:52;20.10;;;15.70;;
25936;SDS011;13733;51.178;4.450;2024-03-08T13:06:21;20.80;;;16.00;;
25936;SDS011;13733;51.178;4.450;2024-03-08T13:08:50;20.95;;;15.50;;
25936;SDS011;13733;51.178;4.450;2024-03-08T13:11:17;20.50;;;15.32;;
25936;SDS011;13733;51.178;4.450;2024-03-08T13:13:44;20.38;;;15.13;;
25936;SDS011;13733;51.178;4.450;2024-03-08T13:16:11;21.35;;;14.45;;
25936;SDS011;13733;51.178;4.450;2024-03-08T13:18:40;18.05;;;15.05;;
25936;SDS011;13733;51.178;4.450;2024-03-08T13:21:09;20.47;;;15.70;;
25936;SDS011;13733;51.178;4.450;2024-03-08T13:23:37;19.98;;;15.18;;
25936;SDS011;13733;51.178;4.450;2024-03-08T13:26:08;18.65;;;15.98;;
25936;SDS011;13733;51.178;4.450;2024-03-08T13:28:45;21.80;;;15.23;;
25936;SDS011;13733;51.178;4.450;2024-03-08T13:31:11;22.77;;;16.10;;
25936;SDS011;13733;51.178;4.450;2024-03-08T13:33:40;17.02;;;14.70;;
25936;SDS011;13733;51.178;4.450;2024-03-08T13:36:11;24.08;;;15.77;;
25936;SDS011;13733;51.178;4.450;2024-03-08T13:38:45;21.63;;;15.63;;
25936;SDS011;13733;51.178;4.450;2024-03-08T13:41:12;18.65;;;15.85;;
25936;SDS011;13733;51.178;4.450;2024-03-08T13:43:46;19.95;;;15.70;;
25936;SDS011;13733;51.178;4.450;2024-03-08T13:46:15;20.20;;;16.17;;
25936;SDS011;13733;51.178;4.450;2024-03-08T13:48:41;17.65;;;14.77;;
25936;SDS011;13733;51.178;4.450;2024-03-08T13:51:08;18.10;;;14.57;;
25936;SDS011;13733;51.178;4.450;2024-03-08T13:53:40;17.35;;;15.13;;
25936;SDS011;13733;51.178;4.450;2024-03-08T13:56:06;18.02;;;14.82;;
25936;SDS011;13733;51.178;4.450;2024-03-08T13:58:35;17.95;;;15.10;;
25936;SDS011;13733;51.178;4.450;2024-03-08T14:01:02;18.60;;;14.68;;
25936;SDS011;13733;51.178;4.450;2024-03-08T14:03:31;18.52;;;15.30;;
25936;SDS011;13733;51.178;4.450;2024-03-08T14:05:57;22.88;;;15.80;;
25936;SDS011;13733;51.178;4.450;2024-03-08T14:08:25;19.70;;;15.02;;
25936;SDS011;13733;51.178;4.450;2024-03-08T14:10:52;20.83;;;15.55;;
25936;SDS011;13733;51.178;4.450;2024-03-08T14:13:19;21.77;;;15.30;;
25936;SDS011;13733;51.178;4.450;2024-03-08T14:15:44;17.20;;;14.20;;
25936;SDS011;13733;51.178;4.450;2024-03-08T14:18:11;17.50;;;14.02;;
25936;SDS011;13733;51.178;4.450;2024-03-08T14:20:38;23.85;;;14.63;;
25936;SDS011;13733;51.178;4.450;2024-03-08T14:23:04;17.73;;;14.50;;
25936;SDS011;13733;51.178;4.450;2024-03-08T14:25:33;22.55;;;13.88;;
25936;SDS011;13733;51.178;4.450;2024-03-08T14:27:59;16.98;;;13.10;;
25936;SDS011;13733;51.178;4.450;2024-03-08T14:32:58;20.75;;;14.25;;
25936;SDS011;13733;51.178;4.450;2024-03-08T14:35:25;18.48;;;13.40;;
25936;SDS011;13733;51.178;4.450;2024-03-08T14:37:51;14.98;;;13.38;;
25936;SDS011;13733;51.178;4.450;2024-03-08T14:40:18;17.27;;;14.48;;